Ana Sayfa
METAR-TAF:

METAR-TAF

Havaalanları :

Chatham-Kent Municipal Airport

Chatham-Kent, Ontario, Kanada

Enlem: 42-18-22N, Boylam: 82-04-54W, yükseklik: 197 m

Güncel hava durumu gözlemi

Rapor saat 18:00 UTC de 1 saat ve 9 dakika önce yapıldı.
Rüzgar kuzeydoğudan 12 kt
Sıcaklık 4°C
Nem 93%
Basınç 1012 hPa
Görüş mesafesi: 14.5 km
1400 ft yükseklikte çok bulutlu

METAR: CYCK 251800Z AUTO 04012KT 9SM OVC014 04/03 A2987 RMK SLP121

Saat: 14:09 (19:09 UTC)


TAF: eksik

4.000'den fazla havaalanı için hava durumu gözlemleri ve tahminleri (METAR ve TAF raporları).

Kullanılabilir istasyonlar harita üzerinde sarı ve kırmızı noktalarla gösterilir.

İstasyonun adını görmek için fareyi noktanın üzerinde gezdirin.

Sonrasında hava gözlem ve tahminlerini görmek için tıklayın.

Haritayı değiştirmek için: yaklaştırmak için siyah artı işaretli yeşil düğmeye ve uzaklaştırmak için de eksi işaretli düğmeye hızla tıklayın; bitişik haritalar için yeşil okları kullanın.


METAR-TAF: